Fpmc P Eagle — A8RE4 — position and weather

sailwx.info

Track history (hours):
 
Tides and Currents Weather Stations Pressure Air Temp Water Temp Dewpoint Dewpoint Depression Visibility Wind Speed Wind Dir Waves Ship Positions

Fpmc P Eagle

Last reported at 2017-Oct-27 10:02 UTC. Time now 2017-Dec-12 12:35 UTC.
Position N 36°12' E 014°47'.
Warning: this ship's position is 46 days out of date.

Length 228 m; draft 12.6 m.

Type: Ship (hazmat cat D). MMSI: 636014082.

Date/timePositionNaut miles runAvg speedWind from/ knotsBaromVisibWave heightAir tempDewpointWater temp
2017-Oct-27 10:02N 36°12' E 014°47'312.8
2017-Oct-27 09:49N 36°12' E 014°44'412.8
2017-Oct-27 09:30N 36°13' E 014°39'612.6
2017-Oct-27 09:00N 36°16' E 014°32'612.5
2017-Oct-27 08:30N 36°18' E 014°25'612.5
2017-Oct-27 08:00N 36°20' E 014°18'612.5
2017-Oct-27 07:30N 36°22' E 014°10'612.4
2017-Oct-27 07:00N 36°25' E 014°03'712.5
2017-Oct-27 06:26N 36°28' E 013°55'61012.7
2017-Oct-25 06:20N 37°02' E 001°15'413.2
2017-Oct-25 06:00N 37°00' E 001°10'713.3
2017-Oct-25 05:30N 36°58' E 001°02'713.1
2017-Oct-25 05:00N 36°56' E 000°54'712.9
2017-Oct-25 04:28N 36°53' E 000°46'613.0
2017-Oct-25 04:00N 36°51' E 000°39'713.1
2017-Oct-25 03:30N 36°49' E 000°31'1113.4
2017-Oct-25 02:41N 36°46' E 000°18'213.5
2017-Oct-25 02:30N 36°45' E 000°15'5613.1
2017-Oct-24 22:15N 36°26' W 000°50'42312.3
2017-Oct-23 11:47N 36°43' W 009°36'1313.3
2017-Oct-23 10:48N 36°55' W 009°41'412.8
2017-Oct-23 10:29N 36°59' W 009°42'1112.4
2017-Oct-23 09:34N 37°10' W 009°45'112.2
2017-Oct-23 09:27N 37°12' W 009°46'512.1
2017-Oct-23 09:01N 37°17' W 009°47'1012.2
2017-Oct-23 08:11N 37°27' W 009°50'212.3
2017-Oct-23 08:00N 37°29' W 009°50'612.2
2017-Oct-23 07:29N 37°35' W 009°52'812.3
2017-Oct-23 06:53N 37°42' W 009°54'512.6
2017-Oct-23 06:31N 37°47' W 009°55'1113.0
2017-Oct-23 05:41N 37°57' W 009°59'213.3
2017-Oct-23 05:30N 37°60' W 009°59'713.6
2017-Oct-23 05:00N 38°06' W 010°01'713.6
2017-Oct-23 04:30N 38°13' W 010°03'713.8
2017-Oct-23 04:00N 38°20' W 010°04'712.9
2017-Oct-23 03:30N 38°26' W 010°06'1612.7
2017-Oct-23 02:16N 38°41' W 010°11'313.0
2017-Oct-23 02:00N 38°45' W 010°11'712.9
2017-Oct-23 01:26N 38°52' W 010°12'612.7
2017-Oct-23 01:00N 38°58' W 010°12'612.8
2017-Oct-23 00:30N 39°04' W 010°12'713.0
2017-Oct-23 00:00N 39°11' W 010°12'311 9.7
2017-Oct-21 15:48N 44°00' W 007°39'2 8.5
2017-Oct-21 15:30N 43°60' W 007°36'4 8.5
2017-Oct-21 15:00N 43°59' W 007°30'4 8.5
2017-Oct-21 14:30N 43°58' W 007°24'9 8.7
2017-Oct-21 13:28N 43°56' W 007°12'4 8.5
2017-Oct-21 13:00N 43°55' W 007°06'377 9.2
2017-Oct-19 19:50N 49°44' W 003°37'310.6
2017-Oct-19 19:30N 49°46' W 003°33'510.7
2017-Oct-19 19:00N 49°49' W 003°26'510.1
2017-Oct-19 18:30N 49°51' W 003°19'510.5
2017-Oct-19 18:00N 49°54' W 003°12'510.9
2017-Oct-19 17:30N 49°57' W 003°05'611.3
2017-Oct-19 17:00N 49°59' W 002°57'612.0
2017-Oct-19 16:30N 50°01' W 002°48'713.1
2017-Oct-19 15:58N 50°03' W 002°37'8715.1
2017-Oct-19 10:12N 50°26' W 000°26'312.5
2017-Oct-19 09:59N 50°27' W 000°22'612.2
2017-Oct-19 09:30N 50°28' W 000°13'611.9
2017-Oct-19 09:01N 50°30' W 000°04'611.3
2017-Oct-19 08:30N 50°31' E 000°05'510.8
2017-Oct-19 08:01N 50°32' E 000°13'511.0
2017-Oct-19 07:30N 50°34' E 000°21'611.6
2017-Oct-19 07:00N 50°35' E 000°30'612.3
2017-Oct-19 06:31N 50°38' E 000°39'713.4
2017-Oct-19 06:00N 50°42' E 000°47'714.2
2017-Oct-19 05:30N 50°47' E 000°55'714.5
2017-Oct-19 05:00N 50°52' E 001°04'714.5
2017-Oct-19 04:30N 50°56' E 001°13'714.4
2017-Oct-19 04:00N 51°01' E 001°22'713.6
2017-Oct-19 03:30N 51°05' E 001°30'612.6
2017-Oct-19 03:00N 51°09' E 001°38'1211.7
2017-Oct-19 02:01N 51°18' E 001°50'611.3
2017-Oct-19 01:30N 51°23' E 001°55'611.1
2017-Oct-19 01:00N 51°27' E 002°00'511.0
2017-Oct-19 00:30N 51°32' E 002°05'611.3
2017-Oct-19 00:00N 51°36' E 002°11'611.5
2017-Oct-18 23:30N 51°40' E 002°18'9013.1
2017-Oct-18 16:39N 53°09' E 002°41'212.5
2017-Oct-18 16:28N 53°11' E 002°42'96 8.3
2017-Oct-18 04:55N 53°35' E 000°05'9 0.6
2017-Oct-17 12:38N 53°38' W 000°10'0 0.0
2017-Oct-17 12:17N 53°38' W 000°10'0 0.0
2017-Oct-17 11:59N 53°38' W 000°10'0 0.0
2017-Oct-17 11:08N 53°38' W 000°10'0 0.0
2017-Oct-17 10:41N 53°38' W 000°10'0 0.0
2017-Oct-17 10:29N 53°38' W 000°10'  
Track history (hours):
 
Tides and Currents Weather Stations Pressure Air Temp Water Temp Dewpoint Dewpoint Depression Visibility Wind Speed Wind Dir Waves Ship Positions

Fpmc P Eagle

Last reported at 2017-Oct-27 10:02 UTC. Time now 2017-Dec-12 12:35 UTC.
Position N 36°12' E 014°47'.
Warning: this ship's position is 46 days out of date.

Length 228 m; draft 12.6 m.

Type: Ship (hazmat cat D). MMSI: 636014082.

Date/timePositionNaut miles runAvg speedWind from/ knotsBaromVisibWave heightAir tempDewpointWater temp
2017-Oct-27 10:02N 36°12' E 014°47'312.8
2017-Oct-27 09:49N 36°12' E 014°44'412.8
2017-Oct-27 09:30N 36°13' E 014°39'612.6
2017-Oct-27 09:00N 36°16' E 014°32'612.5
2017-Oct-27 08:30N 36°18' E 014°25'612.5
2017-Oct-27 08:00N 36°20' E 014°18'612.5
2017-Oct-27 07:30N 36°22' E 014°10'612.4
2017-Oct-27 07:00N 36°25' E 014°03'712.5
2017-Oct-27 06:26N 36°28' E 013°55'61012.7
2017-Oct-25 06:20N 37°02' E 001°15'413.2
2017-Oct-25 06:00N 37°00' E 001°10'713.3
2017-Oct-25 05:30N 36°58' E 001°02'713.1
2017-Oct-25 05:00N 36°56' E 000°54'712.9
2017-Oct-25 04:28N 36°53' E 000°46'613.0
2017-Oct-25 04:00N 36°51' E 000°39'713.1
2017-Oct-25 03:30N 36°49' E 000°31'1113.4
2017-Oct-25 02:41N 36°46' E 000°18'213.5
2017-Oct-25 02:30N 36°45' E 000°15'5613.1
2017-Oct-24 22:15N 36°26' W 000°50'42312.3
2017-Oct-23 11:47N 36°43' W 009°36'1313.3
2017-Oct-23 10:48N 36°55' W 009°41'412.8
2017-Oct-23 10:29N 36°59' W 009°42'1112.4
2017-Oct-23 09:34N 37°10' W 009°45'112.2
2017-Oct-23 09:27N 37°12' W 009°46'512.1
2017-Oct-23 09:01N 37°17' W 009°47'1012.2
2017-Oct-23 08:11N 37°27' W 009°50'212.3
2017-Oct-23 08:00N 37°29' W 009°50'612.2
2017-Oct-23 07:29N 37°35' W 009°52'812.3
2017-Oct-23 06:53N 37°42' W 009°54'512.6
2017-Oct-23 06:31N 37°47' W 009°55'1113.0
2017-Oct-23 05:41N 37°57' W 009°59'213.3
2017-Oct-23 05:30N 37°60' W 009°59'713.6
2017-Oct-23 05:00N 38°06' W 010°01'713.6
2017-Oct-23 04:30N 38°13' W 010°03'713.8
2017-Oct-23 04:00N 38°20' W 010°04'712.9
2017-Oct-23 03:30N 38°26' W 010°06'1612.7
2017-Oct-23 02:16N 38°41' W 010°11'313.0
2017-Oct-23 02:00N 38°45' W 010°11'712.9
2017-Oct-23 01:26N 38°52' W 010°12'612.7
2017-Oct-23 01:00N 38°58' W 010°12'612.8
2017-Oct-23 00:30N 39°04' W 010°12'713.0
2017-Oct-23 00:00N 39°11' W 010°12'311 9.7
2017-Oct-21 15:48N 44°00' W 007°39'2 8.5
2017-Oct-21 15:30N 43°60' W 007°36'4 8.5
2017-Oct-21 15:00N 43°59' W 007°30'4 8.5
2017-Oct-21 14:30N 43°58' W 007°24'9 8.7
2017-Oct-21 13:28N 43°56' W 007°12'4 8.5
2017-Oct-21 13:00N 43°55' W 007°06'377 9.2
2017-Oct-19 19:50N 49°44' W 003°37'310.6
2017-Oct-19 19:30N 49°46' W 003°33'510.7
2017-Oct-19 19:00N 49°49' W 003°26'510.1
2017-Oct-19 18:30N 49°51' W 003°19'510.5
2017-Oct-19 18:00N 49°54' W 003°12'510.9
2017-Oct-19 17:30N 49°57' W 003°05'611.3
2017-Oct-19 17:00N 49°59' W 002°57'612.0
2017-Oct-19 16:30N 50°01' W 002°48'713.1
2017-Oct-19 15:58N 50°03' W 002°37'8715.1
2017-Oct-19 10:12N 50°26' W 000°26'312.5
2017-Oct-19 09:59N 50°27' W 000°22'612.2
2017-Oct-19 09:30N 50°28' W 000°13'611.9
2017-Oct-19 09:01N 50°30' W 000°04'611.3
2017-Oct-19 08:30N 50°31' E 000°05'510.8
2017-Oct-19 08:01N 50°32' E 000°13'511.0
2017-Oct-19 07:30N 50°34' E 000°21'611.6
2017-Oct-19 07:00N 50°35' E 000°30'612.3
2017-Oct-19 06:31N 50°38' E 000°39'713.4
2017-Oct-19 06:00N 50°42' E 000°47'714.2
2017-Oct-19 05:30N 50°47' E 000°55'714.5
2017-Oct-19 05:00N 50°52' E 001°04'714.5
2017-Oct-19 04:30N 50°56' E 001°13'714.4
2017-Oct-19 04:00N 51°01' E 001°22'713.6
2017-Oct-19 03:30N 51°05' E 001°30'612.6
2017-Oct-19 03:00N 51°09' E 001°38'1211.7
2017-Oct-19 02:01N 51°18' E 001°50'611.3
2017-Oct-19 01:30N 51°23' E 001°55'611.1
2017-Oct-19 01:00N 51°27' E 002°00'511.0
2017-Oct-19 00:30N 51°32' E 002°05'611.3
2017-Oct-19 00:00N 51°36' E 002°11'611.5
2017-Oct-18 23:30N 51°40' E 002°18'9013.1
2017-Oct-18 16:39N 53°09' E 002°41'212.5
2017-Oct-18 16:28N 53°11' E 002°42'96 8.3
2017-Oct-18 04:55N 53°35' E 000°05'9 0.6
2017-Oct-17 12:38N 53°38' W 000°10'0 0.0
2017-Oct-17 12:17N 53°38' W 000°10'0 0.0
2017-Oct-17 11:59N 53°38' W 000°10'0 0.0
2017-Oct-17 11:08N 53°38' W 000°10'0 0.0
2017-Oct-17 10:41N 53°38' W 000°10'0 0.0
2017-Oct-17 10:29N 53°38' W 000°10'  

Dump ship's entire track history